Time;durP1;ratioP1;P1;durP2;ratioP2;P2;SDS_P1;SDS_P2;PMS_P1;PMS_P2;Temp;Humidity;BMP_temperature;BMP_pressure;BME280_temperature;BME280_humidity;BME280_pressure;Samples;Min_cycle;Max_cycle;Signal;HPM_P1;HPM_P2
2022/10/31 00:00:09;;;;;;;34.22;15.43;;;11.80;99.90;;;;;;5014516;28;20497;-65
2022/10/31 00:02:36;;;;;;;28.20;14.27;;;11.80;99.90;;;;;;5015416;28;20085;-66
2022/10/31 00:05:02;;;;;;;23.27;13.70;;;11.70;99.90;;;;;;5013835;28;20049;-66
2022/10/31 00:07:29;;;;;;;25.52;14.82;;;11.70;99.90;;;;;;4997650;28;20054;-66
2022/10/31 00:09:56;;;;;;;29.42;16.38;;;11.70;99.90;;;;;;5012717;28;20387;-66
2022/10/31 00:12:23;;;;;;;32.63;15.63;;;11.60;99.90;;;;;;4996849;28;20060;-65
2022/10/31 00:14:51;;;;;;;28.67;14.93;;;11.50;99.90;;;;;;5014930;28;20490;-65
2022/10/31 00:17:18;;;;;;;28.45;15.25;;;11.50;99.90;;;;;;5014773;28;20066;-65
2022/10/31 00:19:45;;;;;;;24.42;14.32;;;11.50;99.90;;;;;;4996285;28;20045;-66
2022/10/31 00:22:12;;;;;;;23.70;15.32;;;11.40;99.90;;;;;;5015036;28;20054;-66
2022/10/31 00:24:39;;;;;;;25.42;15.50;;;11.40;99.90;;;;;;4996881;28;20046;-65
2022/10/31 00:27:06;;;;;;;27.48;15.60;;;11.30;99.90;;;;;;5012256;28;20061;-65
2022/10/31 00:29:33;;;;;;;28.52;15.82;;;11.30;99.90;;;;;;5014087;28;20054;-64
2022/10/31 00:32:01;;;;;;;27.08;15.95;;;11.30;99.90;;;;;;4996814;28;20073;-66
2022/10/31 00:34:28;;;;;;;31.13;16.08;;;11.20;99.90;;;;;;5012501;28;20112;-65
2022/10/31 00:36:54;;;;;;;31.25;16.08;;;11.30;99.90;;;;;;5011753;28;20518;-64
2022/10/31 00:39:21;;;;;;;30.70;15.93;;;11.20;99.90;;;;;;5013883;28;20425;-65
2022/10/31 00:41:48;;;;;;;27.58;15.23;;;11.20;99.90;;;;;;5013630;28;20049;-64
2022/10/31 00:44:15;;;;;;;27.13;16.13;;;11.10;99.90;;;;;;4996850;28;20135;-64
2022/10/31 00:46:42;;;;;;;30.13;17.00;;;11.10;99.90;;;;;;5014392;28;20054;-65
2022/10/31 00:49:10;;;;;;;34.97;17.67;;;11.10;99.90;;;;;;5013347;28;20111;-64
2022/10/31 00:51:37;;;;;;;28.48;16.20;;;11.00;99.90;;;;;;5014584;28;20425;-65
2022/10/31 00:54:04;;;;;;;24.55;15.38;;;11.00;99.90;;;;;;5011352;28;20049;-64
2022/10/31 00:56:31;;;;;;;27.63;16.02;;;11.00;99.90;;;;;;4996571;28;20058;-65
2022/10/31 00:58:58;;;;;;;32.45;16.73;;;10.90;99.90;;;;;;4997328;28;20042;-65
2022/10/31 01:01:25;;;;;;;27.08;18.15;;;10.90;99.90;;;;;;5012653;28;20557;-65
2022/10/31 01:03:52;;;;;;;27.80;16.50;;;10.90;99.90;;;;;;5014107;28;20449;-65
2022/10/31 01:06:20;;;;;;;27.50;17.23;;;10.90;99.90;;;;;;4993981;28;20096;-65
2022/10/31 01:08:48;;;;;;;32.83;17.90;;;10.80;99.90;;;;;;5012931;28;20528;-65
2022/10/31 01:11:18;;;;;;;32.45;18.48;;;10.90;99.90;;;;;;4995591;28;20061;-65
2022/10/31 01:13:45;;;;;;;33.63;18.67;;;10.90;99.90;;;;;;4994260;28;20050;-65
2022/10/31 01:16:15;;;;;;;36.13;18.60;;;11.00;99.90;;;;;;5012761;28;20449;-65
2022/10/31 01:18:42;;;;;;;35.70;20.25;;;11.00;99.90;;;;;;5013471;28;20061;-65
2022/10/31 01:21:11;;;;;;;34.28;18.58;;;11.00;99.90;;;;;;5013630;28;20046;-65
2022/10/31 01:23:40;;;;;;;30.75;18.63;;;11.00;99.90;;;;;;4994987;28;20490;-65
2022/10/31 01:26:09;;;;;;;40.40;19.77;;;11.00;99.90;;;;;;4995678;28;20049;-65
2022/10/31 01:28:38;;;;;;;28.65;18.95;;;11.00;99.90;;;;;;4995374;28;20053;-65
2022/10/31 01:31:07;;;;;;;35.10;18.25;;;11.00;99.90;;;;;;4995257;28;20050;-65
2022/10/31 01:33:35;;;;;;;37.00;18.73;;;11.00;99.90;;;;;;4996175;28;20054;-64
2022/10/31 01:36:11;;;;;;;35.63;17.27;;;11.00;99.90;;;;;;4995997;28;20062;-65
2022/10/31 01:38:38;;;;;;;27.45;17.30;;;11.00;99.90;;;;;;5012418;28;20452;-65
2022/10/31 01:41:06;;;;;;;32.08;18.38;;;11.00;99.90;;;;;;4995969;28;20501;-64
2022/10/31 01:43:43;;;;;;;28.23;16.65;;;11.00;99.90;;;;;;5012345;28;20446;-66
2022/10/31 01:46:11;;;;;;;31.58;17.48;;;11.00;99.90;;;;;;5011739;28;20391;-65
2022/10/31 01:48:38;;;;;;;27.58;16.20;;;11.00;99.90;;;;;;4995588;28;20064;-65
2022/10/31 01:51:06;;;;;;;35.13;17.92;;;11.00;99.90;;;;;;4994718;28;20089;-64
2022/10/31 01:53:33;;;;;;;34.58;16.95;;;10.90;99.90;;;;;;4995600;28;20096;-64
2022/10/31 01:56:01;;;;;;;28.13;15.80;;;10.90;99.90;;;;;;5013206;28;20046;-65
2022/10/31 01:58:32;;;;;;;28.63;16.67;;;10.90;99.90;;;;;;4994792;28;20057;-65
2022/10/31 02:01:02;;;;;;;27.05;16.73;;;10.90;99.90;;;;;;4995808;28;20046;-65
2022/10/31 02:03:30;;;;;;;26.40;15.87;;;10.90;99.90;;;;;;5013005;28;20096;-65
2022/10/31 02:05:58;;;;;;;25.13;16.23;;;10.90;99.90;;;;;;5011885;28;20045;-65
2022/10/31 02:08:28;;;;;;;29.27;16.45;;;10.80;99.90;;;;;;4994904;28;20462;-65
2022/10/31 02:10:56;;;;;;;30.55;17.15;;;10.80;99.90;;;;;;4995403;28;20104;-65
2022/10/31 02:13:24;;;;;;;32.05;15.68;;;10.80;99.90;;;;;;4994747;28;20053;-66
2022/10/31 02:15:54;;;;;;;26.50;16.83;;;10.70;99.90;;;;;;5010477;28;20054;-65
2022/10/31 02:18:22;;;;;;;34.20;15.95;;;10.70;99.90;;;;;;5012020;28;20498;-66
2022/10/31 02:21:00;;;;;;;28.38;17.27;;;10.70;99.90;;;;;;4994734;28;20046;-65
2022/10/31 02:24:00;;;;;;;33.08;17.25;;;10.70;99.90;;;;;;5012546;28;20046;-65
2022/10/31 02:27:05;;;;;;;25.90;15.13;;;10.70;99.90;;;;;;4994048;28;20100;-66
2022/10/31 02:30:03;;;;;;;27.98;16.60;;;10.60;99.90;;;;;;4994915;28;20512;-63
2022/10/31 02:32:39;;;;;;;31.13;16.38;;;10.50;99.90;;;;;;4993879;28;20092;-65
2022/10/31 02:35:14;;;;;;;34.50;18.48;;;10.50;99.90;;;;;;4994604;28;20050;-65
2022/10/31 02:37:49;;;;;;;30.88;16.60;;;10.50;99.90;;;;;;4992833;28;20053;-65
2022/10/31 02:40:22;;;;;;;29.65;17.35;;;10.50;99.90;;;;;;4993102;28;20046;-66
2022/10/31 02:42:58;;;;;;;31.50;18.55;;;10.50;99.90;;;;;;4993664;28;20049;-65
2022/10/31 02:45:36;;;;;;;30.48;17.83;;;10.50;99.90;;;;;;5012427;28;20551;-65
2022/10/31 02:48:11;;;;;;;36.78;18.65;;;10.40;99.90;;;;;;5010794;28;20497;-65
2022/10/31 02:50:43;;;;;;;39.25;18.70;;;10.40;99.90;;;;;;4994538;28;20457;-64
2022/10/31 02:53:10;;;;;;;27.85;16.33;;;10.40;99.90;;;;;;5012073;28;20096;-64
2022/10/31 02:55:58;;;;;;;27.35;16.20;;;10.40;99.90;;;;;;5011033;28;20542;-65
2022/10/31 02:58:29;;;;;;;30.65;17.00;;;10.30;99.90;;;;;;4994551;28;20054;-64
2022/10/31 03:01:18;;;;;;;28.58;16.77;;;10.30;99.90;;;;;;5011238;28;20038;-65
2022/10/31 03:04:00;;;;;;;27.70;16.80;;;10.20;99.90;;;;;;5012448;28;20117;-64
2022/10/31 03:06:33;;;;;;;29.40;17.98;;;10.20;99.90;;;;;;5009686;28;20049;-66
2022/10/31 03:09:11;;;;;;;37.42;18.80;;;10.20;99.90;;;;;;4993414;28;20092;-65
2022/10/31 03:11:46;;;;;;;33.25;17.80;;;10.20;99.90;;;;;;5012186;28;20112;-65
2022/10/31 03:14:21;;;;;;;29.17;16.40;;;10.20;99.90;;;;;;4992817;28;20096;-65
2022/10/31 03:16:50;;;;;;;31.80;16.85;;;10.10;99.90;;;;;;4993910;28;20069;-65
2022/10/31 03:19:23;;;;;;;31.05;19.17;;;10.10;99.90;;;;;;4993791;28;20092;-65
2022/10/31 03:21:55;;;;;;;29.88;16.75;;;10.10;99.90;;;;;;4993592;28;20054;-65
2022/10/31 03:24:25;;;;;;;31.73;19.42;;;10.10;99.90;;;;;;4994591;28;20436;-65
2022/10/31 03:26:56;;;;;;;38.35;19.70;;;10.00;99.90;;;;;;4994552;28;20428;-65
2022/10/31 03:29:27;;;;;;;28.60;16.17;;;10.00;99.90;;;;;;4997230;28;20050;-65
2022/10/31 03:31:58;;;;;;;29.92;16.40;;;9.90;99.90;;;;;;5016130;28;20050;-66
2022/10/31 03:34:28;;;;;;;37.85;18.98;;;9.90;99.90;;;;;;4998196;28;20054;-65
2022/10/31 03:36:59;;;;;;;34.47;19.08;;;10.00;99.90;;;;;;5015118;28;20100;-66
2022/10/31 03:39:28;;;;;;;34.80;19.63;;;9.90;99.90;;;;;;4998126;28;20042;-65
2022/10/31 03:41:57;;;;;;;34.70;18.85;;;10.00;99.90;;;;;;4997784;28;20485;-64
2022/10/31 03:44:25;;;;;;;33.10;19.27;;;9.90;99.90;;;;;;4997428;28;20061;-65
2022/10/31 03:46:52;;;;;;;30.80;18.35;;;10.00;99.90;;;;;;4997513;28;20058;-65
2022/10/31 03:49:19;;;;;;;33.22;19.40;;;9.90;99.90;;;;;;4997933;28;20058;-65
2022/10/31 03:51:50;;;;;;;30.60;17.85;;;9.90;99.90;;;;;;4996708;28;20054;-65
2022/10/31 03:54:25;;;;;;;31.30;18.42;;;9.90;99.90;;;;;;4997975;28;20050;-65
2022/10/31 03:56:55;;;;;;;31.20;17.65;;;10.00;99.90;;;;;;4997018;28;20104;-65
2022/10/31 03:59:27;;;;;;;31.45;18.70;;;9.90;99.90;;;;;;4997657;28;20046;-65
2022/10/31 04:01:58;;;;;;;34.92;18.40;;;9.90;99.90;;;;;;4995836;28;20449;-64
2022/10/31 04:04:26;;;;;;;32.08;18.38;;;9.90;99.90;;;;;;4993277;28;20050;-64
2022/10/31 04:06:57;;;;;;;36.10;19.27;;;9.90;99.90;;;;;;5014690;28;20054;-65
2022/10/31 04:09:26;;;;;;;36.13;20.30;;;9.90;99.90;;;;;;5014886;28;20046;-65
2022/10/31 04:11:55;;;;;;;40.95;20.80;;;9.90;99.90;;;;;;4996938;28;20391;-66
2022/10/31 04:14:25;;;;;;;34.40;19.08;;;9.90;99.90;;;;;;5014839;28;20081;-65
2022/10/31 04:16:52;;;;;;;34.10;19.00;;;9.90;99.90;;;;;;5014843;28;20065;-65
2022/10/31 04:19:19;;;;;;;38.60;19.55;;;9.90;99.90;;;;;;5013862;28;20077;-65
2022/10/31 04:21:46;;;;;;;41.60;19.52;;;9.90;99.90;;;;;;4997578;28;20058;-65
2022/10/31 04:24:14;;;;;;;37.42;19.35;;;9.90;99.90;;;;;;4997577;28;20057;-66
2022/10/31 04:26:41;;;;;;;31.52;18.83;;;9.90;99.90;;;;;;4994897;28;20107;-64
2022/10/31 04:29:08;;;;;;;32.50;17.48;;;9.90;99.90;;;;;;4997024;28;20093;-65
2022/10/31 04:31:35;;;;;;;36.00;19.48;;;9.90;99.90;;;;;;5014581;28;20150;-65
2022/10/31 04:34:01;;;;;;;40.35;20.13;;;9.80;99.90;;;;;;4996477;28;20179;-65
2022/10/31 04:36:28;;;;;;;38.65;19.80;;;9.80;99.90;;;;;;5013754;28;20053;-64
2022/10/31 04:38:55;;;;;;;33.63;20.02;;;9.80;99.90;;;;;;5013812;28;20089;-65
2022/10/31 04:41:23;;;;;;;37.90;19.48;;;9.80;99.90;;;;;;4995701;28;20050;-65
2022/10/31 04:43:50;;;;;;;34.28;18.30;;;9.80;99.90;;;;;;5012376;28;20054;-65
2022/10/31 04:46:17;;;;;;;36.60;20.27;;;9.80;99.90;;;;;;4996252;28;20478;-65
2022/10/31 04:48:44;;;;;;;37.35;20.10;;;9.80;99.90;;;;;;4996947;28;20049;-66
2022/10/31 04:51:11;;;;;;;33.38;18.23;;;9.80;99.90;;;;;;4996501;28;20050;-65
2022/10/31 04:53:38;;;;;;;34.83;19.60;;;9.80;99.90;;;;;;5013482;28;20050;-64
2022/10/31 04:56:05;;;;;;;34.63;19.90;;;9.80;99.90;;;;;;5014365;28;20405;-64
2022/10/31 04:58:34;;;;;;;30.17;18.83;;;9.80;99.90;;;;;;4995773;28;20054;-64
2022/10/31 05:01:00;;;;;;;30.95;19.25;;;9.70;99.90;;;;;;5011381;28;20095;-64
2022/10/31 05:03:27;;;;;;;38.70;20.50;;;9.70;99.90;;;;;;4996476;28;20046;-65
2022/10/31 05:05:54;;;;;;;33.92;19.33;;;9.70;99.90;;;;;;5014219;28;20157;-64
2022/10/31 05:08:21;;;;;;;31.10;19.73;;;9.70;99.90;;;;;;5012979;28;20054;-65
2022/10/31 05:10:48;;;;;;;33.75;19.33;;;9.70;99.90;;;;;;5011456;28;20046;-64
2022/10/31 05:13:15;;;;;;;35.58;19.45;;;9.70;99.90;;;;;;4995955;28;20053;-64
2022/10/31 05:15:43;;;;;;;36.17;19.85;;;9.70;99.90;;;;;;5011236;28;20125;-65
2022/10/31 05:18:11;;;;;;;34.40;19.40;;;9.70;99.90;;;;;;4995922;28;20571;-65
2022/10/31 05:20:38;;;;;;;31.00;19.33;;;9.70;99.90;;;;;;5013802;28;20061;-65
2022/10/31 05:23:05;;;;;;;34.60;17.90;;;9.70;99.90;;;;;;4995647;28;20099;-64
2022/10/31 05:25:32;;;;;;;36.33;19.23;;;9.60;99.90;;;;;;4995705;28;20050;-64
2022/10/31 05:27:59;;;;;;;39.38;20.05;;;9.60;99.90;;;;;;5013283;28;20107;-65
2022/10/31 05:30:28;;;;;;;31.88;18.52;;;9.60;99.90;;;;;;5013094;28;20042;-65
2022/10/31 05:32:56;;;;;;;29.60;17.75;;;9.60;99.90;;;;;;4995904;28;20053;-65
2022/10/31 05:35:25;;;;;;;36.08;19.73;;;9.60;99.90;;;;;;4995619;28;20088;-65
2022/10/31 05:37:52;;;;;;;33.55;19.58;;;9.60;99.90;;;;;;4995595;28;20053;-65
2022/10/31 05:40:21;;;;;;;31.70;19.05;;;9.60;99.90;;;;;;4995954;28;20046;-65
2022/10/31 05:42:47;;;;;;;31.65;19.92;;;9.60;99.90;;;;;;5010417;28;20095;-65
2022/10/31 05:45:17;;;;;;;30.13;17.83;;;9.50;99.90;;;;;;4995650;28;20054;-65
2022/10/31 05:47:50;;;;;;;29.65;17.15;;;9.50;99.90;;;;;;4995280;28;20065;-64
2022/10/31 05:50:18;;;;;;;17.73;10.43;;;9.50;99.90;;;;;;4981667;28;20042;-66
2022/10/31 05:52:45;;;;;;;31.48;17.55;;;10.20;99.90;;;;;;4986961;28;20058;-65
2022/10/31 05:55:12;;;;;;;31.25;19.85;;;10.50;99.90;;;;;;5007162;28;20105;-65
2022/10/31 05:57:39;;;;;;;31.75;17.95;;;10.30;99.90;;;;;;4989134;28;20050;-65
2022/10/31 06:00:07;;;;;;;33.92;18.25;;;10.10;99.90;;;;;;5006695;28;20041;-65
2022/10/31 06:02:34;;;;;;;30.17;18.63;;;9.90;99.90;;;;;;5011610;28;20053;-64
2022/10/31 06:05:01;;;;;;;24.83;17.10;;;9.80;99.90;;;;;;5007711;28;20092;-64
2022/10/31 06:15:17;;;;;;;29.30;16.60;;;9.70;99.90;;;;;;4995617;28;20065;-65
2022/10/31 06:17:44;;;;;;;33.10;20.13;;;9.60;99.90;;;;;;5026025;28;20053;-65
2022/10/31 06:20:12;;;;;;;32.08;19.73;;;9.50;99.90;;;;;;5026090;28;20092;-65
2022/10/31 06:22:38;;;;;;;25.35;17.42;;;9.50;99.90;;;;;;5011656;28;20103;-65
2022/10/31 06:25:06;;;;;;;31.90;18.80;;;9.40;99.90;;;;;;5025474;28;20081;-63
2022/10/31 06:27:32;;;;;;;36.22;17.50;;;9.40;99.90;;;;;;5006656;28;20054;-65
2022/10/31 06:29:59;;;;;;;32.90;19.35;;;9.40;99.90;;;;;;5013343;28;20053;-66
2022/10/31 06:32:27;;;;;;;29.63;17.63;;;9.40;99.90;;;;;;5024556;28;20509;-65
2022/10/31 06:34:54;;;;;;;30.88;17.63;;;9.30;99.90;;;;;;5024599;28;20501;-64
2022/10/31 06:37:21;;;;;;;32.33;19.95;;;9.30;99.90;;;;;;5026908;28;20061;-64
2022/10/31 06:39:48;;;;;;;29.55;19.63;;;9.30;99.90;;;;;;5024779;28;20045;-64
2022/10/31 06:42:16;;;;;;;34.03;19.02;;;9.40;99.90;;;;;;5008353;28;20119;-64
2022/10/31 06:44:43;;;;;;;28.55;19.27;;;9.40;99.90;;;;;;5022961;28;20104;-66
2022/10/31 06:47:10;;;;;;;29.27;19.00;;;9.40;99.90;;;;;;5025835;28;20049;-64
2022/10/31 06:49:38;;;;;;;28.15;20.13;;;9.40;99.90;;;;;;5006433;28;20409;-64
2022/10/31 06:52:06;;;;;;;31.85;20.25;;;9.40;99.90;;;;;;5026183;28;20354;-65
2022/10/31 06:54:33;;;;;;;30.02;18.70;;;9.50;99.90;;;;;;5008645;28;20053;-64
2022/10/31 06:56:59;;;;;;;26.90;18.95;;;9.50;99.90;;;;;;5025569;28;20045;-65
2022/10/31 06:59:26;;;;;;;32.55;21.00;;;9.60;99.90;;;;;;5009469;28;20053;-65
2022/10/31 07:01:53;;;;;;;32.55;20.02;;;9.60;99.90;;;;;;5005449;28;20077;-65
2022/10/31 07:04:20;;;;;;;31.35;21.33;;;9.70;99.90;;;;;;5032304;28;20089;-65
2022/10/31 07:06:51;;;;;;;29.40;20.48;;;9.70;99.90;;;;;;5017804;28;20049;-65
2022/10/31 07:09:17;;;;;;;31.55;20.17;;;9.80;99.90;;;;;;5033967;28;20049;-65
2022/10/31 07:11:44;;;;;;;26.83;18.88;;;9.90;99.90;;;;;;5037427;28;20046;-64
2022/10/31 07:14:11;;;;;;;29.83;18.75;;;9.90;99.90;;;;;;5035578;28;20504;-64
2022/10/31 07:16:38;;;;;;;26.27;18.05;;;9.90;99.90;;;;;;5020386;28;20103;-65
2022/10/31 07:19:05;;;;;;;29.42;16.63;;;10.00;99.90;;;;;;5038276;28;20087;-64
2022/10/31 07:21:31;;;;;;;25.92;18.38;;;10.00;99.90;;;;;;5019642;28;20056;-65
2022/10/31 07:24:00;;;;;;;29.92;19.35;;;10.10;99.90;;;;;;5038229;28;20499;-66
2022/10/31 07:26:27;;;;;;;26.75;18.98;;;10.10;99.90;;;;;;5036520;28;20050;-64
2022/10/31 07:28:54;;;;;;;28.73;19.55;;;10.30;99.90;;;;;;5037310;28;20061;-65
2022/10/31 07:31:21;;;;;;;34.95;19.88;;;10.40;99.90;;;;;;5038324;28;20069;-65
2022/10/31 07:33:48;;;;;;;28.20;19.45;;;10.50;99.90;;;;;;5020284;28;20491;-64
2022/10/31 07:36:15;;;;;;;32.53;20.92;;;10.80;99.90;;;;;;5019618;28;20099;-64
2022/10/31 07:38:42;;;;;;;34.88;24.00;;;11.80;99.90;;;;;;5018575;28;20485;-64
2022/10/31 07:41:10;;;;;;;25.10;16.92;;;13.00;99.90;;;;;;5019891;28;20107;-63
2022/10/31 07:43:37;;;;;;;24.20;14.38;;;14.20;99.90;;;;;;5038155;28;20099;-65
2022/10/31 07:46:04;;;;;;;17.95;12.45;;;15.30;99.90;;;;;;5018245;28;20468;-65
2022/10/31 07:48:30;;;;;;;16.27;12.10;;;16.20;99.90;;;;;;5037469;28;20076;-64
2022/10/31 07:50:57;;;;;;;16.83;10.88;;;17.10;99.90;;;;;;5038048;28;20069;-65
2022/10/31 07:53:25;;;;;;;14.20;10.35;;;17.80;99.90;;;;;;5018272;28;20099;-64
2022/10/31 07:55:52;;;;;;;14.52;10.57;;;18.60;99.90;;;;;;5036978;28;20479;-64
2022/10/31 07:58:20;;;;;;;14.93;10.88;;;19.20;99.90;;;;;;5038095;28;20496;-64
2022/10/31 08:00:48;;;;;;;14.85;9.88;;;19.80;99.90;;;;;;5019880;28;20041;-64
2022/10/31 08:03:16;;;;;;;14.55;9.18;;;19.90;99.90;;;;;;5019252;28;20049;-65
2022/10/31 08:05:45;;;;;;;12.70;8.68;;;20.20;99.90;;;;;;5035917;28;20099;-65
2022/10/31 08:08:13;;;;;;;14.60;9.20;;;20.70;99.90;;;;;;5037901;28;20563;-65
2022/10/31 08:10:40;;;;;;;17.27;9.80;;;21.00;99.90;;;;;;5019087;28;20052;-66
2022/10/31 08:13:09;;;;;;;11.18;8.57;;;21.10;99.90;;;;;;5020216;28;20049;-64
2022/10/31 08:15:39;;;;;;;14.13;9.18;;;21.20;99.90;;;;;;5015547;28;20057;-64
2022/10/31 08:18:07;;;;;;;10.73;8.27;;;20.90;99.90;;;;;;5034112;28;20199;-64
2022/10/31 08:20:33;;;;;;;13.77;8.45;;;21.10;99.90;;;;;;5014517;28;20142;-66
2022/10/31 08:23:02;;;;;;;11.35;7.97;;;20.70;99.90;;;;;;5034209;28;20103;-66
2022/10/31 08:25:31;;;;;;;11.57;8.27;;;21.30;99.90;;;;;;5015824;28;20107;-66
2022/10/31 08:27:58;;;;;;;11.50;8.52;;;21.10;99.90;;;;;;5012984;28;20061;-67
2022/10/31 08:30:26;;;;;;;11.85;8.00;;;20.90;99.90;;;;;;5014864;28;20126;-64
2022/10/31 08:33:02;;;;;;;10.85;7.78;;;20.80;99.90;;;;;;5004058;28;20045;-65
2022/10/31 08:35:29;;;;;;;9.50;6.88;;;20.80;99.90;;;;;;5010238;28;20413;-65
2022/10/31 08:37:56;;;;;;;9.25;6.43;;;20.70;99.90;;;;;;5027140;28;20460;-65
2022/10/31 08:40:24;;;;;;;10.18;6.55;;;20.80;99.90;;;;;;5009119;28;20474;-65
2022/10/31 08:42:58;;;;;;;12.30;8.43;;;21.00;99.90;;;;;;5010104;28;20100;-66
2022/10/31 08:45:25;;;;;;;8.95;6.68;;;21.20;99.90;;;;;;5009911;28;20057;-66
2022/10/31 08:47:52;;;;;;;9.07;6.70;;;21.50;99.90;;;;;;5024198;28;20045;-66
2022/10/31 08:50:20;;;;;;;11.25;7.60;;;21.90;99.90;;;;;;5024215;28;20052;-65
2022/10/31 08:52:47;;;;;;;10.95;7.93;;;21.80;99.90;;;;;;5025715;28;20057;-65
2022/10/31 08:55:14;;;;;;;9.75;7.60;;;21.60;99.90;;;;;;5008469;28;20049;-66
2022/10/31 08:57:41;;;;;;;10.48;7.07;;;21.20;99.90;;;;;;5007294;28;20057;-66
2022/10/31 09:00:09;;;;;;;8.05;5.95;;;21.20;99.90;;;;;;5029563;28;20095;-66
2022/10/31 09:02:36;;;;;;;13.75;7.25;;;21.30;99.90;;;;;;5011872;28;20060;-66
2022/10/31 09:05:04;;;;;;;8.65;7.00;;;21.60;99.90;;;;;;5024798;28;20458;-65
2022/10/31 09:07:32;;;;;;;9.07;6.80;;;22.10;99.90;;;;;;5010807;28;20095;-65
2022/10/31 09:09:59;;;;;;;7.40;6.22;;;22.50;99.90;;;;;;5008947;28;20065;-65
2022/10/31 09:12:25;;;;;;;8.68;6.82;;;22.50;99.90;;;;;;5009501;28;20049;-66
2022/10/31 09:14:52;;;;;;;9.75;6.75;;;22.40;99.90;;;;;;5008926;28;20112;-66
2022/10/31 09:17:19;;;;;;;10.18;7.40;;;22.60;99.90;;;;;;5009552;28;20100;-65
2022/10/31 09:19:46;;;;;;;8.48;6.45;;;22.70;99.90;;;;;;5026753;28;20574;-65
2022/10/31 09:22:13;;;;;;;8.93;5.72;;;22.70;99.90;;;;;;5026432;28;20049;-66
2022/10/31 09:24:41;;;;;;;10.73;6.93;;;22.80;99.90;;;;;;5026634;28;20054;-66
2022/10/31 09:27:08;;;;;;;10.30;6.78;;;22.80;99.90;;;;;;5006534;28;20120;-66
2022/10/31 09:29:35;;;;;;;10.52;7.18;;;22.80;99.90;;;;;;5030596;28;20100;-66
2022/10/31 09:32:02;;;;;;;11.55;6.85;;;23.20;99.90;;;;;;5024844;28;20049;-66
2022/10/31 09:34:29;;;;;;;9.88;6.63;;;23.50;99.90;;;;;;5005407;28;20120;-66
2022/10/31 09:36:56;;;;;;;6.97;6.05;;;24.10;99.90;;;;;;5006813;28;20057;-65
2022/10/31 09:39:22;;;;;;;10.38;6.10;;;24.80;99.40;;;;;;5011637;28;20485;-66
2022/10/31 09:42:10;;;;;;;7.95;6.28;;;25.30;98.00;;;;;;5006317;28;20085;-67
2022/10/31 09:44:51;;;;;;;7.82;6.25;;;25.30;95.80;;;;;;5025131;28;20460;-67
2022/10/31 09:47:25;;;;;;;9.90;6.53;;;25.70;95.90;;;;;;5005594;28;20099;-66
2022/10/31 09:50:13;;;;;;;6.32;5.18;;;26.10;94.70;;;;;;5003525;28;20061;-65
2022/10/31 09:52:44;;;;;;;8.40;5.30;;;26.30;93.80;;;;;;5008136;28;20493;-66
2022/10/31 09:55:17;;;;;;;9.32;5.78;;;26.40;94.20;;;;;;5012016;28;20107;-66
2022/10/31 09:57:46;;;;;;;5.72;4.70;;;26.50;92.80;;;;;;5012296;28;20053;-66
2022/10/31 10:00:18;;;;;;;9.13;4.93;;;26.50;92.90;;;;;;5011657;28;20049;-66
2022/10/31 10:02:50;;;;;;;7.82;5.68;;;26.70;92.40;;;;;;5007483;28;20316;-66
2022/10/31 10:05:22;;;;;;;7.15;5.47;;;26.60;92.00;;;;;;5028534;28;20041;-65
2022/10/31 10:07:56;;;;;;;8.07;5.43;;;26.90;91.60;;;;;;5005658;28;20088;-66
2022/10/31 10:10:32;;;;;;;7.05;5.38;;;26.30;91.20;;;;;;5026976;28;20056;-66
2022/10/31 10:13:14;;;;;;;7.05;4.72;;;26.40;91.60;;;;;;5007837;28;20093;-65
2022/10/31 10:15:57;;;;;;;6.28;4.55;;;26.40;92.00;;;;;;5005831;28;20057;-66
2022/10/31 10:18:33;;;;;;;15.18;6.03;;;26.80;91.20;;;;;;5023570;28;20050;-66
2022/10/31 10:21:23;;;;;;;8.13;5.78;;;27.00;90.30;;;;;;5007502;28;20539;-66
2022/10/31 10:23:57;;;;;;;;;;;26.80;90.40;;;;;;5005977;28;20042;-66
2022/10/31 10:26:31;;;;;;;8.30;5.80;;;27.10;89.00;;;;;;5023357;28;19926;-66
2022/10/31 10:29:04;;;;;;;6.32;5.38;;;27.50;89.50;;;;;;5011791;28;20089;-66
2022/10/31 10:31:36;;;;;;;8.68;5.70;;;27.60;89.40;;;;;;5008481;28;20104;-66
2022/10/31 10:34:11;;;;;;;6.95;5.65;;;27.90;89.90;;;;;;5025754;28;20095;-66
2022/10/31 10:36:41;;;;;;;7.43;5.70;;;27.70;88.20;;;;;;5022648;28;20455;-66
2022/10/31 10:39:12;;;;;;;;;;;27.40;89.20;;;;;;5030223;28;20046;-66
2022/10/31 10:41:42;;;;;;;8.07;6.65;;;26.80;87.50;;;;;;5026436;28;19921;-66
2022/10/31 10:44:11;;;;;;;8.18;6.03;;;26.70;90.40;;;;;;5026511;28;20103;-65
2022/10/31 10:49:33;;;;;;;12.43;6.40;;;25.50;90.30;;;;;;5024907;28;20052;-67
2022/10/31 10:52:07;;;;;;;8.57;6.57;;;25.10;90.90;;;;;;5023610;28;20092;-67
2022/10/31 10:54:50;;;;;;;8.98;6.90;;;24.20;91.80;;;;;;5022829;28;20396;-66
2022/10/31 10:57:37;;;;;;;8.38;6.07;;;23.40;92.80;;;;;;5029294;28;20096;-66
2022/10/31 11:00:20;;;;;;;7.78;6.43;;;23.80;93.10;;;;;;5012566;28;20447;-67
2022/10/31 11:02:47;;;;;;;9.68;7.85;;;24.90;92.00;;;;;;5025853;28;20092;-66
2022/10/31 11:05:21;;;;;;;10.20;7.80;;;25.00;92.00;;;;;;5007431;28;20050;-66
2022/10/31 11:07:48;;;;;;;10.63;7.13;;;25.30;91.60;;;;;;5006054;28;20049;-66
2022/10/31 11:10:16;;;;;;;9.73;7.22;;;25.80;91.50;;;;;;5006721;28;20053;-66
2022/10/31 11:12:45;;;;;;;8.38;6.47;;;25.90;91.10;;;;;;5004789;28;20096;-66
2022/10/31 11:15:22;;;;;;;11.55;7.32;;;26.20;90.70;;;;;;5008016;28;20049;-66
2022/10/31 11:17:51;;;;;;;9.10;6.47;;;26.00;90.40;;;;;;5025357;28;20508;-66
2022/10/31 11:20:31;;;;;;;18.83;8.20;;;25.40;90.70;;;;;;5022098;28;20049;-66
2022/10/31 11:23:16;;;;;;;10.30;6.93;;;25.00;91.10;;;;;;5002999;28;20048;-66
2022/10/31 11:25:51;;;;;;;8.82;6.53;;;24.60;91.80;;;;;;5007485;28;20136;-66
2022/10/31 11:28:18;;;;;;;11.45;6.78;;;24.30;92.10;;;;;;5023689;28;20125;-66
2022/10/31 11:30:48;;;;;;;9.50;7.55;;;23.90;92.60;;;;;;5027058;28;20524;-66
2022/10/31 11:33:20;;;;;;;10.55;6.78;;;23.20;93.40;;;;;;5026344;28;20041;-65
2022/10/31 11:35:48;;;;;;;15.88;7.68;;;22.50;94.90;;;;;;5005902;28;20115;-65
2022/10/31 11:38:20;;;;;;;10.05;6.93;;;22.20;95.40;;;;;;5006598;28;20065;-66
2022/10/31 11:40:55;;;;;;;9.65;6.95;;;21.80;96.00;;;;;;5023391;28;20049;-66
2022/10/31 11:43:23;;;;;;;11.25;6.80;;;21.60;96.60;;;;;;5024560;28;20053;-65
2022/10/31 11:45:52;;;;;;;9.40;7.00;;;21.10;97.60;;;;;;5009064;28;20115;-65
2022/10/31 11:48:23;;;;;;;9.25;6.75;;;20.80;98.60;;;;;;5022708;28;20064;-64
2022/10/31 11:50:52;;;;;;;11.13;7.10;;;20.50;99.40;;;;;;5028107;28;20054;-66
2022/10/31 11:53:24;;;;;;;8.77;6.57;;;20.20;99.90;;;;;;5029462;28;20072;-65
2022/10/31 11:56:03;;;;;;;9.23;6.47;;;20.10;99.90;;;;;;5027312;28;20046;-65
2022/10/31 11:58:30;;;;;;;14.93;6.32;;;20.10;99.90;;;;;;5028866;28;20382;-65
2022/10/31 12:00:59;;;;;;;10.02;5.57;;;20.20;99.90;;;;;;5026705;28;20492;-65
2022/10/31 12:03:49;;;;;;;7.68;5.50;;;20.70;99.90;;;;;;5031405;28;20693;-64
2022/10/31 12:06:19;;;;;;;;;;;21.10;99.90;;;;;;5028439;28;20056;-66
2022/10/31 12:08:46;;;;;;;7.73;4.50;;;21.10;99.90;;;;;;5011271;28;20392;-65
2022/10/31 12:11:27;;;;;;;8.45;5.43;;;21.30;99.90;;;;;;5030698;28;21127;-66
2022/10/31 12:14:06;;;;;;;9.70;5.35;;;21.00;99.90;;;;;;5028426;28;20081;-66
2022/10/31 12:16:40;;;;;;;6.65;4.53;;;20.70;99.90;;;;;;5012589;28;20045;-66
2022/10/31 12:19:17;;;;;;;11.32;5.40;;;20.40;99.90;;;;;;5027212;28;20052;-66
2022/10/31 12:22:05;;;;;;;9.35;4.97;;;20.30;99.90;;;;;;5008244;28;20469;-65
2022/10/31 12:24:44;;;;;;;6.00;3.97;;;20.70;99.90;;;;;;5010705;28;20505;-66
2022/10/31 12:27:21;;;;;;;7.60;4.20;;;21.20;99.90;;;;;;5007175;28;20131;-66
2022/10/31 12:30:10;;;;;;;6.20;4.13;;;21.50;99.90;;;;;;5031418;28;20053;-66
2022/10/31 12:32:49;;;;;;;8.38;3.75;;;21.30;99.90;;;;;;5028160;28;20049;-66
2022/10/31 12:35:33;;;;;;;9.27;4.57;;;20.80;99.90;;;;;;5026358;28;20096;-65
2022/10/31 12:38:29;;;;;;;10.35;4.30;;;20.50;99.90;;;;;;5025157;28;20053;-65
2022/10/31 12:41:23;;;;;;;6.38;3.60;;;20.10;99.90;;;;;;5005994;28;20501;-65
2022/10/31 12:43:58;;;;;;;6.07;3.58;;;19.70;99.90;;;;;;5024237;28;20041;-65
2022/10/31 12:46:35;;;;;;;6.68;3.80;;;19.40;99.90;;;;;;5007433;28;20059;-65
2022/10/31 12:49:22;;;;;;;10.63;3.75;;;19.20;99.90;;;;;;5008842;28;20057;-65
2022/10/31 12:51:58;;;;;;;6.20;3.30;;;19.10;99.90;;;;;;5008768;28;20095;-65
2022/10/31 12:54:39;;;;;;;5.65;3.33;;;18.80;99.90;;;;;;5027166;28;20041;-65
2022/10/31 12:57:17;;;;;;;5.43;3.28;;;18.80;99.90;;;;;;5006558;28;20108;-65
2022/10/31 12:59:48;;;;;;;7.35;3.65;;;18.90;99.90;;;;;;5012492;28;20057;-66
2022/10/31 13:02:22;;;;;;;5.25;3.63;;;18.80;99.90;;;;;;5027082;28;20049;-64